sensor_id;sensor_type;location;lat;lon;timestamp;pressure;altitude;pressure_sealevel;temperature;humidity
8585;BME280;7180;52.742;11.420;2023-02-21T00:00:51;100689.78;;;9.37;100.00
8585;BME280;7180;52.742;11.420;2023-02-21T00:03:35;100681.91;;;9.37;100.00
8585;BME280;7180;52.742;11.420;2023-02-21T00:06:19;100682.97;;;9.33;100.00
8585;BME280;7180;52.742;11.420;2023-02-21T00:09:03;100677.22;;;9.27;100.00
8585;BME280;7180;52.742;11.420;2023-02-21T00:11:47;100689.81;;;9.20;100.00
8585;BME280;7180;52.742;11.420;2023-02-21T00:14:31;100699.84;;;9.29;100.00
8585;BME280;7180;52.742;11.420;2023-02-21T00:17:15;100699.06;;;9.27;100.00
8585;BME280;7180;52.742;11.420;2023-02-21T00:19:59;100702.75;;;9.23;100.00
8585;BME280;7180;52.742;11.420;2023-02-21T00:22:44;100709.69;;;9.24;100.00
8585;BME280;7180;52.742;11.420;2023-02-21T00:25:28;100704.44;;;9.24;100.00
8585;BME280;7180;52.742;11.420;2023-02-21T00:28:12;100713.03;;;9.11;100.00
8585;BME280;7180;52.742;11.420;2023-02-21T00:30:56;100723.66;;;9.25;100.00
8585;BME280;7180;52.742;11.420;2023-02-21T00:33:40;100727.91;;;9.27;100.00
8585;BME280;7180;52.742;11.420;2023-02-21T00:36:24;100711.88;;;9.16;100.00
8585;BME280;7180;52.742;11.420;2023-02-21T00:39:08;100724.69;;;9.22;100.00
8585;BME280;7180;52.742;11.420;2023-02-21T00:41:52;100724.53;;;9.25;100.00
8585;BME280;7180;52.742;11.420;2023-02-21T00:44:36;100726.13;;;9.28;100.00
8585;BME280;7180;52.742;11.420;2023-02-21T00:47:20;100725.75;;;9.18;100.00
8585;BME280;7180;52.742;11.420;2023-02-21T00:50:04;100723.44;;;9.12;100.00
8585;BME280;7180;52.742;11.420;2023-02-21T00:52:48;100734.91;;;9.10;100.00
8585;BME280;7180;52.742;11.420;2023-02-21T00:55:32;100741.50;;;9.18;100.00
8585;BME280;7180;52.742;11.420;2023-02-21T00:58:20;100740.66;;;9.18;100.00
8585;BME280;7180;52.742;11.420;2023-02-21T01:01:04;100733.94;;;9.12;100.00
8585;BME280;7180;52.742;11.420;2023-02-21T01:03:48;100742.50;;;9.16;100.00
8585;BME280;7180;52.742;11.420;2023-02-21T01:06:31;100742.50;;;9.16;100.00
8585;BME280;7180;52.742;11.420;2023-02-21T01:09:15;100744.66;;;9.08;100.00
8585;BME280;7180;52.742;11.420;2023-02-21T01:11:59;100755.00;;;9.11;100.00
8585;BME280;7180;52.742;11.420;2023-02-21T01:14:43;100745.69;;;9.22;100.00
8585;BME280;7180;52.742;11.420;2023-02-21T01:17:27;100746.75;;;9.18;100.00
8585;BME280;7180;52.742;11.420;2023-02-21T01:20:12;100741.63;;;9.15;100.00
8585;BME280;7180;52.742;11.420;2023-02-21T01:22:55;100744.34;;;9.14;100.00
8585;BME280;7180;52.742;11.420;2023-02-21T01:25:39;100737.41;;;9.13;100.00
8585;BME280;7180;52.742;11.420;2023-02-21T01:28:23;100736.25;;;9.18;100.00
8585;BME280;7180;52.742;11.420;2023-02-21T01:31:07;100741.63;;;9.15;100.00
8585;BME280;7180;52.742;11.420;2023-02-21T01:33:51;100736.38;;;9.15;100.00
8585;BME280;7180;52.742;11.420;2023-02-21T01:36:35;100735.94;;;9.24;100.00
8585;BME280;7180;52.742;11.420;2023-02-21T01:39:19;100730.53;;;9.27;100.00
8585;BME280;7180;52.742;11.420;2023-02-21T01:42:03;100718.66;;;9.20;100.00
8585;BME280;7180;52.742;11.420;2023-02-21T01:45:05;100724.69;;;9.22;100.00
8585;BME280;7180;52.742;11.420;2023-02-21T01:47:54;100707.22;;;9.21;100.00
8585;BME280;7180;52.742;11.420;2023-02-21T01:50:38;100706.31;;;9.22;100.00
8585;BME280;7180;52.742;11.420;2023-02-21T01:53:24;100708.44;;;9.31;100.00
8585;BME280;7180;52.742;11.420;2023-02-21T01:56:09;100702.81;;;9.39;100.00
8585;BME280;7180;52.742;11.420;2023-02-21T01:58:56;100694.84;;;9.40;100.00
8585;BME280;7180;52.742;11.420;2023-02-21T02:01:59;100690.06;;;9.31;100.00
8585;BME280;7180;52.742;11.420;2023-02-21T02:04:46;100685.00;;;9.28;100.00
8585;BME280;7180;52.742;11.420;2023-02-21T02:07:31;100691.50;;;9.38;100.00
8585;BME280;7180;52.742;11.420;2023-02-21T02:10:15;100682.50;;;9.42;100.00
8585;BME280;7180;52.742;11.420;2023-02-21T02:13:30;100672.00;;;9.42;100.00
8585;BME280;7180;52.742;11.420;2023-02-21T02:16:07;100673.06;;;9.56;100.00
8585;BME280;7180;52.742;11.420;2023-02-21T02:22:22;100653.91;;;9.38;100.00
8585;BME280;7180;52.742;11.420;2023-02-21T02:25:08;100667.53;;;9.44;100.00
8585;BME280;7180;52.742;11.420;2023-02-21T02:33:20;100663.66;;;9.52;100.00
8585;BME280;7180;52.742;11.420;2023-02-21T02:35:55;100654.78;;;9.54;100.00
8585;BME280;7180;52.742;11.420;2023-02-21T02:38:38;100647.91;;;9.52;100.00
8585;BME280;7180;52.742;11.420;2023-02-21T02:41:17;100641.97;;;9.48;100.00
8585;BME280;7180;52.742;11.420;2023-02-21T02:43:50;100630.47;;;9.51;100.00
8585;BME280;7180;52.742;11.420;2023-02-21T02:46:26;100652.84;;;9.58;100.00
8585;BME280;7180;52.742;11.420;2023-02-21T02:48:56;100642.59;;;9.53;100.00
8585;BME280;7180;52.742;11.420;2023-02-21T02:51:24;100642.44;;;9.56;100.00
8585;BME280;7180;52.742;11.420;2023-02-21T02:53:50;100643.97;;;9.60;100.00
8585;BME280;7180;52.742;11.420;2023-02-21T02:56:15;100643.41;;;9.54;100.00
8585;BME280;7180;52.742;11.420;2023-02-21T03:02:03;100640.13;;;9.50;100.00
8585;BME280;7180;52.742;11.420;2023-02-21T03:04:53;100650.53;;;9.52;100.00
8585;BME280;7180;52.742;11.420;2023-02-21T03:07:45;100627.16;;;9.47;100.00
8585;BME280;7180;52.742;11.420;2023-02-21T03:20:37;100661.69;;;9.39;100.00
8585;BME280;7180;52.742;11.420;2023-02-21T03:23:04;100666.34;;;9.34;100.00
8585;BME280;7180;52.742;11.420;2023-02-21T03:25:31;100663.94;;;9.30;100.00
8585;BME280;7180;52.742;11.420;2023-02-21T03:27:59;100672.13;;;9.24;100.00
8585;BME280;7180;52.742;11.420;2023-02-21T03:30:25;100687.03;;;9.23;100.00
8585;BME280;7180;52.742;11.420;2023-02-21T03:32:51;100677.53;;;9.21;100.00
8585;BME280;7180;52.742;11.420;2023-02-21T03:35:18;100692.19;;;9.25;100.00
8585;BME280;7180;52.742;11.420;2023-02-21T03:37:47;100698.22;;;9.27;100.00
8585;BME280;7180;52.742;11.420;2023-02-21T03:40:17;100694.38;;;9.17;100.00
8585;BME280;7180;52.742;11.420;2023-02-21T03:42:44;100693.25;;;9.21;100.00
8585;BME280;7180;52.742;11.420;2023-02-21T03:45:10;100691.56;;;9.20;100.00
8585;BME280;7180;52.742;11.420;2023-02-21T03:47:35;100691.41;;;9.23;100.00
8585;BME280;7180;52.742;11.420;2023-02-21T03:50:01;100685.34;;;9.22;100.00
8585;BME280;7180;52.742;11.420;2023-02-21T03:52:26;100693.81;;;9.27;100.00
8585;BME280;7180;52.742;11.420;2023-02-21T03:54:51;100691.78;;;9.32;100.00
8585;BME280;7180;52.742;11.420;2023-02-21T03:57:17;100690.25;;;9.28;100.00
8585;BME280;7180;52.742;11.420;2023-02-21T03:59:42;100685.16;;;9.25;100.00
8585;BME280;7180;52.742;11.420;2023-02-21T04:02:07;100683.06;;;9.32;100.00
8585;BME280;7180;52.742;11.420;2023-02-21T04:04:33;100687.63;;;9.28;100.00
8585;BME280;7180;52.742;11.420;2023-02-21T04:06:58;100671.97;;;9.27;100.00
8585;BME280;7180;52.742;11.420;2023-02-21T04:09:24;100678.91;;;9.28;100.00
8585;BME280;7180;52.742;11.420;2023-02-21T04:11:50;100683.75;;;9.35;100.00
8585;BME280;7180;52.742;11.420;2023-02-21T04:14:16;100677.44;;;9.39;100.00
8585;BME280;7180;52.742;11.420;2023-02-21T04:16:41;100664.00;;;9.28;100.00
8585;BME280;7180;52.742;11.420;2023-02-21T04:19:07;100674.34;;;9.31;100.00
8585;BME280;7180;52.742;11.420;2023-02-21T04:21:32;100676.47;;;9.40;100.00
8585;BME280;7180;52.742;11.420;2023-02-21T04:23:57;100672.00;;;9.42;100.00
8585;BME280;7180;52.742;11.420;2023-02-21T04:26:22;100663.06;;;9.47;100.00
8585;BME280;7180;52.742;11.420;2023-02-21T04:28:51;100659.56;;;9.46;100.00
8585;BME280;7180;52.742;11.420;2023-02-21T04:31:16;100666.44;;;9.49;100.00
8585;BME280;7180;52.742;11.420;2023-02-21T04:33:43;100649.50;;;9.38;100.00
8585;BME280;7180;52.742;11.420;2023-02-21T04:36:08;100657.19;;;9.41;100.00
8585;BME280;7180;52.742;11.420;2023-02-21T04:38:34;100650.88;;;9.46;100.00
8585;BME280;7180;52.742;11.420;2023-02-21T04:40:59;100656.03;;;9.47;100.00
8585;BME280;7180;52.742;11.420;2023-02-21T04:43:25;100639.69;;;9.42;100.00
8585;BME280;7180;52.742;11.420;2023-02-21T04:45:50;100647.47;;;9.43;100.00
8585;BME280;7180;52.742;11.420;2023-02-21T04:48:16;100651.66;;;9.48;100.00
8585;BME280;7180;52.742;11.420;2023-02-21T04:50:41;100658.66;;;9.47;100.00
8585;BME280;7180;52.742;11.420;2023-02-21T04:53:06;100657.81;;;9.47;100.00
8585;BME280;7180;52.742;11.420;2023-02-21T04:55:32;100661.88;;;9.52;100.00
8585;BME280;7180;52.742;11.420;2023-02-21T04:57:57;100665.78;;;9.61;100.00
8585;BME280;7180;52.742;11.420;2023-02-21T05:00:22;100639.19;;;9.51;100.00
8585;BME280;7180;52.742;11.420;2023-02-21T05:02:48;100632.31;;;9.49;100.00
8585;BME280;7180;52.742;11.420;2023-02-21T05:05:13;100634.94;;;9.49;100.00
8585;BME280;7180;52.742;11.420;2023-02-21T05:07:41;100642.75;;;9.50;100.00
8585;BME280;7180;52.742;11.420;2023-02-21T05:10:07;100650.72;;;9.64;100.00
8585;BME280;7180;52.742;11.420;2023-02-21T05:12:34;100650.38;;;9.55;100.00
8585;BME280;7180;52.742;11.420;2023-02-21T05:15:09;100654.28;;;9.48;100.00
8585;BME280;7180;52.742;11.420;2023-02-21T05:17:34;100654.28;;;9.48;100.00
8585;BME280;7180;52.742;11.420;2023-02-21T05:20:00;100650.88;;;9.46;100.00
8585;BME280;7180;52.742;11.420;2023-02-21T05:22:25;100666.44;;;9.49;100.00
8585;BME280;7180;52.742;11.420;2023-02-21T05:24:51;100664.28;;;9.57;100.00
8585;BME280;7180;52.742;11.420;2023-02-21T05:27:18;100665.97;;;9.58;100.00
8585;BME280;7180;52.742;11.420;2023-02-21T05:29:48;100655.28;;;9.61;100.00
8585;BME280;7180;52.742;11.420;2023-02-21T05:32:18;100659.03;;;9.57;100.00
8585;BME280;7180;52.742;11.420;2023-02-21T05:34:44;100653.78;;;9.57;100.00
8585;BME280;7180;52.742;11.420;2023-02-21T05:37:13;100646.66;;;9.59;100.00
8585;BME280;7180;52.742;11.420;2023-02-21T05:39:38;100647.75;;;9.55;100.00
8585;BME280;7180;52.742;11.420;2023-02-21T05:42:04;100658.53;;;9.66;100.00
8585;BME280;7180;52.742;11.420;2023-02-21T05:44:32;100662.75;;;9.68;100.00
8585;BME280;7180;52.742;11.420;2023-02-21T05:46:57;100659.38;;;9.66;100.00
8585;BME280;7180;52.742;11.420;2023-02-21T05:49:22;100653.44;;;9.63;100.00
8585;BME280;7180;52.742;11.420;2023-02-21T05:51:48;100658.09;;;9.58;100.00
8585;BME280;7180;52.742;11.420;2023-02-21T05:54:17;100666.97;;;9.55;100.00
8585;BME280;7180;52.742;11.420;2023-02-21T05:56:47;100674.78;;;9.57;100.00
8585;BME280;7180;52.742;11.420;2023-02-21T05:59:14;100680.34;;;9.51;100.00
8585;BME280;7180;52.742;11.420;2023-02-21T06:01:40;100694.22;;;9.53;100.00
8585;BME280;7180;52.742;11.420;2023-02-21T06:04:06;100705.03;;;9.47;100.00
8585;BME280;7180;52.742;11.420;2023-02-21T06:06:33;100715.72;;;9.43;100.00
8585;BME280;7180;52.742;11.420;2023-02-21T06:08:58;100731.13;;;9.50;100.00
8585;BME280;7180;52.742;11.420;2023-02-21T06:11:26;100735.94;;;9.41;100.00
8585;BME280;7180;52.742;11.420;2023-02-21T06:13:53;100748.88;;;9.44;100.00
8585;BME280;7180;52.742;11.420;2023-02-21T06:16:19;100754.31;;;9.41;100.00
8585;BME280;7180;52.742;11.420;2023-02-21T06:18:49;100761.09;;;9.46;100.00
8585;BME280;7180;52.742;11.420;2023-02-21T06:21:17;100762.78;;;9.47;100.00
8585;BME280;7180;52.742;11.420;2023-02-21T06:23:45;100768.88;;;9.47;100.00
8585;BME280;7180;52.742;11.420;2023-02-21T06:26:11;100767.63;;;9.37;100.00
8585;BME280;7180;52.742;11.420;2023-02-21T06:28:40;100769.09;;;9.42;100.00
8585;BME280;7180;52.742;11.420;2023-02-21T06:31:05;100774.59;;;9.38;100.00
8585;BME280;7180;52.742;11.420;2023-02-21T06:33:31;100774.69;;;9.36;100.00
8585;BME280;7180;52.742;11.420;2023-02-21T06:35:57;100773.31;;;9.29;100.00
8585;BME280;7180;52.742;11.420;2023-02-21T06:38:24;100791.25;;;9.37;100.00
8585;BME280;7180;52.742;11.420;2023-02-21T06:40:50;100804.09;;;9.43;100.00
8585;BME280;7180;52.742;11.420;2023-02-21T06:43:15;100796.75;;;9.32;100.00
8585;BME280;7180;52.742;11.420;2023-02-21T06:45:40;100802.28;;;9.26;100.00
8585;BME280;7180;52.742;11.420;2023-02-21T06:48:06;100812.50;;;9.32;100.00
8585;BME280;7180;52.742;11.420;2023-02-21T06:50:32;100814.59;;;9.26;100.00
8585;BME280;7180;52.742;11.420;2023-02-21T06:52:58;100826.69;;;9.28;100.00
8585;BME280;7180;52.742;11.420;2023-02-21T06:55:24;100826.94;;;9.24;100.00
8585;BME280;7180;52.742;11.420;2023-02-21T06:57:51;100834.47;;;9.30;100.00
8585;BME280;7180;52.742;11.420;2023-02-21T07:00:17;100846.63;;;9.32;100.00
8585;BME280;7180;52.742;11.420;2023-02-21T07:02:42;100846.00;;;9.27;100.00
8585;BME280;7180;52.742;11.420;2023-02-21T07:05:08;100858.75;;;9.35;100.00
8585;BME280;7180;52.742;11.420;2023-02-21T07:07:34;100859.19;;;9.26;100.00
8585;BME280;7180;52.742;11.420;2023-02-21T07:09:59;100863.75;;;9.22;100.00
8585;BME280;7180;52.742;11.420;2023-02-21T07:12:27;100873.22;;;9.25;100.00
8585;BME280;7180;52.742;11.420;2023-02-21T07:14:53;100873.28;;;9.23;100.00
8585;BME280;7180;52.742;11.420;2023-02-21T07:17:19;100880.72;;;9.32;100.00
8585;BME280;7180;52.742;11.420;2023-02-21T07:19:44;100876.63;;;9.27;100.00
8585;BME280;7180;52.742;11.420;2023-02-21T07:22:10;100886.41;;;9.23;100.00
8585;BME280;7180;52.742;11.420;2023-02-21T07:24:35;100882.72;;;9.27;100.00
8585;BME280;7180;52.742;11.420;2023-02-21T07:27:01;100886.41;;;9.23;100.00
8585;BME280;7180;52.742;11.420;2023-02-21T07:29:26;100884.13;;;9.34;100.00
8585;BME280;7180;52.742;11.420;2023-02-21T07:31:52;100888.50;;;9.34;100.00
8585;BME280;7180;52.742;11.420;2023-02-21T07:34:17;100891.22;;;9.32;100.00
8585;BME280;7180;52.742;11.420;2023-02-21T07:36:44;100892.53;;;9.24;100.00
8585;BME280;7180;52.742;11.420;2023-02-21T07:39:09;100897.88;;;9.39;100.00
8585;BME280;7180;52.742;11.420;2023-02-21T07:41:35;100893.56;;;9.38;100.00
8585;BME280;7180;52.742;11.420;2023-02-21T07:44:00;100893.47;;;9.40;100.00
8585;BME280;7180;52.742;11.420;2023-02-21T07:46:26;100891.06;;;9.35;100.00
8585;BME280;7180;52.742;11.420;2023-02-21T07:48:52;100894.25;;;9.42;100.00
8585;BME280;7180;52.742;11.420;2023-02-21T07:51:17;100892.78;;;9.36;100.00
8585;BME280;7180;52.742;11.420;2023-02-21T07:53:42;100895.72;;;9.48;100.00
8585;BME280;7180;52.742;11.420;2023-02-21T07:56:08;100891.31;;;9.48;100.00
8585;BME280;7180;52.742;11.420;2023-02-21T07:58:33;100893.47;;;9.40;100.00
8585;BME280;7180;52.742;11.420;2023-02-21T08:01:05;100897.88;;;9.39;100.00
8585;BME280;7180;52.742;11.420;2023-02-21T08:03:30;100894.31;;;9.40;100.00
8585;BME280;7180;52.742;11.420;2023-02-21T08:05:57;100907.63;;;9.55;100.00
8585;BME280;7180;52.742;11.420;2023-02-21T08:08:22;100906.84;;;9.53;100.00
8585;BME280;7180;52.742;11.420;2023-02-21T08:10:48;100900.22;;;9.46;100.00
8585;BME280;7180;52.742;11.420;2023-02-21T08:13:13;100902.66;;;9.49;100.00
8585;BME280;7180;52.742;11.420;2023-02-21T08:15:38;100899.97;;;9.50;100.00
8585;BME280;7180;52.742;11.420;2023-02-21T08:18:04;100902.03;;;9.43;100.00
8585;BME280;7180;52.742;11.420;2023-02-21T08:20:29;100906.44;;;9.43;100.00
8585;BME280;7180;52.742;11.420;2023-02-21T08:22:55;100910.69;;;9.46;100.00
8585;BME280;7180;52.742;11.420;2023-02-21T08:25:20;100915.50;;;9.55;100.00
8585;BME280;7180;52.742;11.420;2023-02-21T08:27:46;100919.97;;;9.53;100.00
8585;BME280;7180;52.742;11.420;2023-02-21T08:30:17;100910.25;;;9.55;100.00
8585;BME280;7180;52.742;11.420;2023-02-21T08:32:42;100908.09;;;9.63;100.00
8585;BME280;7180;52.742;11.420;2023-02-21T08:35:13;100916.13;;;9.60;100.00
8585;BME280;7180;52.742;11.420;2023-02-21T08:37:39;100921.66;;;9.54;100.00
8585;BME280;7180;52.742;11.420;2023-02-21T08:40:09;100923.38;;;9.55;100.00
8585;BME280;7180;52.742;11.420;2023-02-21T08:42:35;100921.53;;;9.57;100.00
8585;BME280;7180;52.742;11.420;2023-02-21T08:45:00;100927.59;;;9.57;100.00
8585;BME280;7180;52.742;11.420;2023-02-21T08:47:26;100936.88;;;9.64;100.00
8585;BME280;7180;52.742;11.420;2023-02-21T08:49:51;100933.44;;;9.64;100.00
8585;BME280;7180;52.742;11.420;2023-02-21T08:52:17;100928.97;;;9.66;100.00
8585;BME280;7180;52.742;11.420;2023-02-21T08:54:43;100936.84;;;9.66;100.00
8585;BME280;7180;52.742;11.420;2023-02-21T08:57:10;100936.25;;;9.59;100.00
8585;BME280;7180;52.742;11.420;2023-02-21T08:59:39;100937.81;;;9.63;100.00
8585;BME280;7180;52.742;11.420;2023-02-21T09:02:13;100943.84;;;9.65;100.00
8585;BME280;7180;52.742;11.420;2023-02-21T09:04:40;100942.53;;;9.57;100.00
8585;BME280;7180;52.742;11.420;2023-02-21T09:07:05;100948.97;;;9.50;100.00
8585;BME280;7180;52.742;11.420;2023-02-21T09:09:30;100953.94;;;9.56;100.00
8585;BME280;7180;52.742;11.420;2023-02-21T09:11:55;100963.38;;;9.60;100.00
8585;BME280;7180;52.742;11.420;2023-02-21T09:14:21;100954.88;;;9.55;100.00
8585;BME280;7180;52.742;11.420;2023-02-21T09:16:46;100959.97;;;9.58;100.00
8585;BME280;7180;52.742;11.420;2023-02-21T09:19:11;100963.91;;;9.66;100.00
8585;BME280;7180;52.742;11.420;2023-02-21T09:21:37;100965.88;;;9.80;100.00
8585;BME280;7180;52.742;11.420;2023-02-21T09:24:09;100965.72;;;9.83;100.00
8585;BME280;7180;52.742;11.420;2023-02-21T09:26:35;100954.13;;;9.70;100.00
8585;BME280;7180;52.742;11.420;2023-02-21T09:29:00;100945.63;;;9.65;100.00
8585;BME280;7180;52.742;11.420;2023-02-21T09:31:26;100947.34;;;9.66;100.00
8585;BME280;7180;52.742;11.420;2023-02-21T09:33:51;100950.41;;;9.74;100.00
8585;BME280;7180;52.742;11.420;2023-02-21T09:36:16;100956.03;;;9.66;100.00
8585;BME280;7180;52.742;11.420;2023-02-21T09:38:47;100947.91;;;9.54;100.00
8585;BME280;7180;52.742;11.420;2023-02-21T09:41:13;100967.84;;;9.58;100.00
8585;BME280;7180;52.742;11.420;2023-02-21T09:43:42;100966.22;;;9.55;100.00
8585;BME280;7180;52.742;11.420;2023-02-21T09:46:20;100975.72;;;9.58;100.00
8585;BME280;7180;52.742;11.420;2023-02-21T09:48:48;100974.84;;;9.76;100.00
8585;BME280;7180;52.742;11.420;2023-02-21T09:51:15;100986.03;;;9.79;100.00
8585;BME280;7180;52.742;11.420;2023-02-21T09:53:42;100987.03;;;9.77;100.00
8585;BME280;7180;52.742;11.420;2023-02-21T09:56:28;100996.19;;;9.68;100.00
8585;BME280;7180;52.742;11.420;2023-02-21T09:58:54;100993.25;;;9.57;100.00
8585;BME280;7180;52.742;11.420;2023-02-21T10:01:52;100981.69;;;9.42;100.00
8585;BME280;7180;52.742;11.420;2023-02-21T10:05:02;100980.44;;;9.32;100.00
8585;BME280;7180;52.742;11.420;2023-02-21T10:10:17;100977.31;;;9.24;100.00
8585;BME280;7180;52.742;11.420;2023-02-21T10:12:56;100975.19;;;9.32;100.00
8585;BME280;7180;52.742;11.420;2023-02-21T10:18:43;100979.91;;;9.79;100.00
8585;BME280;7180;52.742;11.420;2023-02-21T10:21:29;100976.22;;;9.83;100.00
8585;BME280;7180;52.742;11.420;2023-02-21T10:23:57;100984.44;;;9.94;100.00
8585;BME280;7180;52.742;11.420;2023-02-21T10:26:30;100989.75;;;10.11;100.00
8585;BME280;7180;52.742;11.420;2023-02-21T10:28:59;100981.25;;;10.04;100.00
8585;BME280;7180;52.742;11.420;2023-02-21T10:31:33;100986.19;;;10.12;100.00
8585;BME280;7180;52.742;11.420;2023-02-21T10:33:59;100989.22;;;10.03;100.00
8585;BME280;7180;52.742;11.420;2023-02-21T10:36:26;100983.81;;;10.06;100.00
8585;BME280;7180;52.742;11.420;2023-02-21T10:38:58;100985.91;;;9.99;100.00
8585;BME280;7180;52.742;11.420;2023-02-21T10:41:28;100982.00;;;9.89;100.00
8585;BME280;7180;52.742;11.420;2023-02-21T10:44:00;100984.28;;;9.97;100.00
8585;BME280;7180;52.742;11.420;2023-02-21T10:46:31;100997.03;;;10.04;100.00
8585;BME280;7180;52.742;11.420;2023-02-21T10:49:20;100996.34;;;10.01;100.00
8585;BME280;7180;52.742;11.420;2023-02-21T10:52:02;100982.09;;;9.88;100.00
8585;BME280;7180;52.742;11.420;2023-02-21T10:54:28;100987.44;;;9.86;100.00
8585;BME280;7180;52.742;11.420;2023-02-21T10:56:53;100985.34;;;9.76;100.00
8585;BME280;7180;52.742;11.420;2023-02-21T10:59:26;100987.59;;;9.83;100.00
8585;BME280;7180;52.742;11.420;2023-02-21T11:01:53;100993.50;;;9.70;100.00
8585;BME280;7180;52.742;11.420;2023-02-21T11:06:47;100998.88;;;9.85;100.00
8585;BME280;7180;52.742;11.420;2023-02-21T11:12:15;101003.69;;;9.94;100.00
8585;BME280;7180;52.742;11.420;2023-02-21T11:14:44;101004.59;;;9.93;100.00
8585;BME280;7180;52.742;11.420;2023-02-21T11:17:17;100994.00;;;9.95;100.00
8585;BME280;7180;52.742;11.420;2023-02-21T11:19:54;101000.78;;;10.17;100.00
8585;BME280;7180;52.742;11.420;2023-02-21T11:22:34;100990.56;;;10.11;100.00
8585;BME280;7180;52.742;11.420;2023-02-21T11:25:04;100983.94;;;9.86;100.00
8585;BME280;7180;52.742;11.420;2023-02-21T11:27:32;100979.88;;;9.97;100.00
8585;BME280;7180;52.742;11.420;2023-02-21T11:30:01;100982.22;;;10.03;100.00
8585;BME280;7180;52.742;11.420;2023-02-21T11:32:39;100980.41;;;10.04;100.00
8585;BME280;7180;52.742;11.420;2023-02-21T11:37:49;100961.09;;;10.05;100.00
8585;BME280;7180;52.742;11.420;2023-02-21T11:42:48;100962.84;;;10.23;100.00
8585;BME280;7180;52.742;11.420;2023-02-21T11:45:29;100959.91;;;10.29;100.00
8585;BME280;7180;52.742;11.420;2023-02-21T11:48:03;100966.25;;;10.25;100.00
8585;BME280;7180;52.742;11.420;2023-02-21T11:50:36;100957.88;;;10.17;100.00
8585;BME280;7180;52.742;11.420;2023-02-21T11:53:24;100960.72;;;10.29;100.00
8585;BME280;7180;52.742;11.420;2023-02-21T11:56:33;100953.06;;;10.42;100.00
8585;BME280;7180;52.742;11.420;2023-02-21T12:01:59;100957.06;;;10.49;100.00
8585;BME280;7180;52.742;11.420;2023-02-21T12:04:41;100956.06;;;10.52;100.00
8585;BME280;7180;52.742;11.420;2023-02-21T12:07:16;100953.34;;;10.53;100.00
8585;BME280;7180;52.742;11.420;2023-02-21T12:09:56;100958.50;;;10.72;100.00
8585;BME280;7180;52.742;11.420;2023-02-21T12:12:37;100943.00;;;10.98;100.00
8585;BME280;7180;52.742;11.420;2023-02-21T12:15:12;100936.88;;;10.82;100.00
8585;BME280;7180;52.742;11.420;2023-02-21T12:20:52;100905.13;;;10.85;100.00
8585;BME280;7180;52.742;11.420;2023-02-21T12:34:47;100867.03;;;10.92;100.00
8585;BME280;7180;52.742;11.420;2023-02-21T12:37:27;100854.00;;;11.06;100.00
8585;BME280;7180;52.742;11.420;2023-02-21T12:48:18;100835.91;;;11.00;100.00
8585;BME280;7180;52.742;11.420;2023-02-21T12:50:53;100833.59;;;10.94;100.00
8585;BME280;7180;52.742;11.420;2023-02-21T12:53:25;100845.38;;;11.18;100.00
8585;BME280;7180;52.742;11.420;2023-02-21T12:56:06;100835.00;;;11.31;100.00
8585;BME280;7180;52.742;11.420;2023-02-21T13:01:30;100821.75;;;11.62;100.00
8585;BME280;7180;52.742;11.420;2023-02-21T13:04:23;100801.97;;;11.71;100.00
8585;BME280;7180;52.742;11.420;2023-02-21T13:07:09;100808.75;;;11.89;100.00
8585;BME280;7180;52.742;11.420;2023-02-21T13:09:42;100793.97;;;11.86;100.00
8585;BME280;7180;52.742;11.420;2023-02-21T13:12:15;100789.56;;;11.87;100.00
8585;BME280;7180;52.742;11.420;2023-02-21T13:14:46;100782.59;;;12.14;100.00
8585;BME280;7180;52.742;11.420;2023-02-21T13:17:14;100762.66;;;12.24;100.00
8585;BME280;7180;52.742;11.420;2023-02-21T13:22:31;100718.38;;;12.29;100.00
8585;BME280;7180;52.742;11.420;2023-02-21T13:27:49;100698.00;;;11.90;100.00
8585;BME280;7180;52.742;11.420;2023-02-21T13:30:40;100704.94;;;11.63;100.00
8585;BME280;7180;52.742;11.420;2023-02-21T13:33:23;100725.31;;;11.45;100.00
8585;BME280;7180;52.742;11.420;2023-02-21T13:35:51;100725.28;;;11.17;100.00
8585;BME280;7180;52.742;11.420;2023-02-21T13:38:18;100754.13;;;11.19;100.00
8585;BME280;7180;52.742;11.420;2023-02-21T13:40:51;100781.41;;;11.32;100.00
8585;BME280;7180;52.742;11.420;2023-02-21T13:43:24;100787.31;;;11.21;100.00
8585;BME280;7180;52.742;11.420;2023-02-21T13:45:50;100820.31;;;11.42;100.00
8585;BME280;7180;52.742;11.420;2023-02-21T13:48:25;100808.06;;;11.41;100.00
8585;BME280;7180;52.742;11.420;2023-02-21T13:50:56;100805.84;;;11.49;100.00
8585;BME280;7180;52.742;11.420;2023-02-21T13:53:30;100771.94;;;11.29;100.00
8585;BME280;7180;52.742;11.420;2023-02-21T13:58:47;100809.63;;;11.30;100.00
8585;BME280;7180;52.742;11.420;2023-02-21T14:03:43;100805.34;;;11.13;100.00
8585;BME280;7180;52.742;11.420;2023-02-21T14:08:40;100799.78;;;11.18;100.00
8585;BME280;7180;52.742;11.420;2023-02-21T14:21:16;100775.66;;;11.25;100.00
8585;BME280;7180;52.742;11.420;2023-02-21T14:23:51;100772.31;;;11.37;100.00
8585;BME280;7180;52.742;11.420;2023-02-21T14:29:12;100746.94;;;11.50;100.00
8585;BME280;7180;52.742;11.420;2023-02-21T14:34:36;100710.66;;;11.56;100.00
8585;BME280;7180;52.742;11.420;2023-02-21T14:37:10;100692.03;;;11.44;100.00
8585;BME280;7180;52.742;11.420;2023-02-21T14:39:40;100689.53;;;11.13;100.00
8585;BME280;7180;52.742;11.420;2023-02-21T14:42:22;100715.13;;;10.96;100.00
8585;BME280;7180;52.742;11.420;2023-02-21T15:01:09;100821.97;;;10.98;100.00
8585;BME280;7180;52.742;11.420;2023-02-21T15:03:46;100808.66;;;10.86;100.00
8585;BME280;7180;52.742;11.420;2023-02-21T15:06:20;100818.84;;;11.07;100.00
8585;BME280;7180;52.742;11.420;2023-02-21T15:08:50;100803.13;;;11.06;100.00
8585;BME280;7180;52.742;11.420;2023-02-21T15:11:29;100800.41;;;11.07;100.00
8585;BME280;7180;52.742;11.420;2023-02-21T15:14:20;100793.94;;;11.13;100.00
8585;BME280;7180;52.742;11.420;2023-02-21T15:17:01;100795.38;;;11.18;100.00